sensor_id;sensor_type;location;lat;lon;timestamp;P1;durP1;ratioP1;P2;durP2;ratioP2
45620;SDS011;31345;51.522;10.702;2023-04-15T00:01:51;5.97;;;4.57;;
45620;SDS011;31345;51.522;10.702;2023-04-15T00:04:24;6.17;;;4.53;;
45620;SDS011;31345;51.522;10.702;2023-04-15T00:06:57;6.37;;;4.50;;
45620;SDS011;31345;51.522;10.702;2023-04-15T00:09:32;7.18;;;4.88;;
45620;SDS011;31345;51.522;10.702;2023-04-15T00:11:59;6.77;;;4.90;;
45620;SDS011;31345;51.522;10.702;2023-04-15T00:14:32;9.68;;;5.35;;
45620;SDS011;31345;51.522;10.702;2023-04-15T00:17:00;8.43;;;5.90;;
45620;SDS011;31345;51.522;10.702;2023-04-15T00:19:28;8.10;;;5.50;;
45620;SDS011;31345;51.522;10.702;2023-04-15T00:22:01;7.10;;;5.33;;
45620;SDS011;31345;51.522;10.702;2023-04-15T00:24:28;6.13;;;5.07;;
45620;SDS011;31345;51.522;10.702;2023-04-15T00:27:03;6.27;;;4.57;;
45620;SDS011;31345;51.522;10.702;2023-04-15T00:29:36;6.93;;;5.00;;
45620;SDS011;31345;51.522;10.702;2023-04-15T00:32:03;8.90;;;5.40;;
45620;SDS011;31345;51.522;10.702;2023-04-15T00:34:37;6.50;;;4.57;;
45620;SDS011;31345;51.522;10.702;2023-04-15T00:37:09;6.70;;;5.47;;
45620;SDS011;31345;51.522;10.702;2023-04-15T00:39:37;6.07;;;4.57;;
45620;SDS011;31345;51.522;10.702;2023-04-15T00:42:12;7.47;;;4.87;;
45620;SDS011;31345;51.522;10.702;2023-04-15T00:44:44;7.13;;;5.37;;
45620;SDS011;31345;51.522;10.702;2023-04-15T00:47:12;8.40;;;5.85;;
45620;SDS011;31345;51.522;10.702;2023-04-15T00:49:40;6.00;;;4.77;;
45620;SDS011;31345;51.522;10.702;2023-04-15T00:52:13;7.83;;;5.60;;
45620;SDS011;31345;51.522;10.702;2023-04-15T00:54:45;8.90;;;5.73;;
45620;SDS011;31345;51.522;10.702;2023-04-15T00:57:14;7.07;;;5.57;;
45620;SDS011;31345;51.522;10.702;2023-04-15T00:59:42;6.97;;;5.43;;
45620;SDS011;31345;51.522;10.702;2023-04-15T01:02:10;7.90;;;5.47;;
45620;SDS011;31345;51.522;10.702;2023-04-15T01:04:38;7.13;;;5.63;;
45620;SDS011;31345;51.522;10.702;2023-04-15T01:07:10;6.70;;;5.37;;
45620;SDS011;31345;51.522;10.702;2023-04-15T01:09:43;8.57;;;5.90;;
45620;SDS011;31345;51.522;10.702;2023-04-15T01:12:17;6.43;;;4.93;;
45620;SDS011;31345;51.522;10.702;2023-04-15T01:14:46;6.78;;;5.43;;
45620;SDS011;31345;51.522;10.702;2023-04-15T01:17:19;7.95;;;4.97;;
45620;SDS011;31345;51.522;10.702;2023-04-15T01:19:47;6.57;;;4.78;;
45620;SDS011;31345;51.522;10.702;2023-04-15T01:22:19;7.30;;;4.93;;
45620;SDS011;31345;51.522;10.702;2023-04-15T01:24:54;7.80;;;5.28;;
45620;SDS011;31345;51.522;10.702;2023-04-15T01:27:36;6.60;;;5.43;;
45620;SDS011;31345;51.522;10.702;2023-04-15T01:30:11;8.10;;;5.63;;
45620;SDS011;31345;51.522;10.702;2023-04-15T01:32:38;7.25;;;5.43;;
45620;SDS011;31345;51.522;10.702;2023-04-15T01:35:06;7.97;;;5.13;;
45620;SDS011;31345;51.522;10.702;2023-04-15T01:37:35;7.23;;;5.53;;
45620;SDS011;31345;51.522;10.702;2023-04-15T01:40:09;7.87;;;5.00;;
45620;SDS011;31345;51.522;10.702;2023-04-15T01:42:43;7.07;;;5.40;;
45620;SDS011;31345;51.522;10.702;2023-04-15T01:45:15;6.83;;;4.97;;
45620;SDS011;31345;51.522;10.702;2023-04-15T01:47:48;8.17;;;5.90;;
45620;SDS011;31345;51.522;10.702;2023-04-15T01:50:16;7.82;;;5.82;;
45620;SDS011;31345;51.522;10.702;2023-04-15T01:52:48;7.43;;;5.27;;
45620;SDS011;31345;51.522;10.702;2023-04-15T01:55:22;8.37;;;5.43;;
45620;SDS011;31345;51.522;10.702;2023-04-15T01:57:57;9.23;;;6.07;;
45620;SDS011;31345;51.522;10.702;2023-04-15T02:00:29;8.27;;;6.47;;
45620;SDS011;31345;51.522;10.702;2023-04-15T02:03:03;9.57;;;6.95;;
45620;SDS011;31345;51.522;10.702;2023-04-15T02:05:36;10.50;;;7.53;;
45620;SDS011;31345;51.522;10.702;2023-04-15T02:08:09;10.63;;;7.10;;
45620;SDS011;31345;51.522;10.702;2023-04-15T02:10:38;8.50;;;6.47;;
45620;SDS011;31345;51.522;10.702;2023-04-15T02:13:11;11.63;;;8.47;;
45620;SDS011;31345;51.522;10.702;2023-04-15T02:15:39;10.63;;;8.30;;
45620;SDS011;31345;51.522;10.702;2023-04-15T02:18:07;11.33;;;8.80;;
45620;SDS011;31345;51.522;10.702;2023-04-15T02:20:35;12.53;;;9.40;;
45620;SDS011;31345;51.522;10.702;2023-04-15T02:23:03;15.90;;;10.23;;
45620;SDS011;31345;51.522;10.702;2023-04-15T02:25:33;12.77;;;9.40;;
45620;SDS011;31345;51.522;10.702;2023-04-15T02:28:05;14.80;;;9.77;;
45620;SDS011;31345;51.522;10.702;2023-04-15T02:30:39;13.67;;;9.63;;
45620;SDS011;31345;51.522;10.702;2023-04-15T02:33:07;15.30;;;10.50;;
45620;SDS011;31345;51.522;10.702;2023-04-15T02:35:39;15.67;;;12.17;;
45620;SDS011;31345;51.522;10.702;2023-04-15T02:38:14;17.30;;;12.10;;
45620;SDS011;31345;51.522;10.702;2023-04-15T02:40:43;21.13;;;13.13;;
45620;SDS011;31345;51.522;10.702;2023-04-15T02:43:12;16.33;;;11.77;;
45620;SDS011;31345;51.522;10.702;2023-04-15T02:45:41;15.53;;;11.80;;
45620;SDS011;31345;51.522;10.702;2023-04-15T02:48:13;17.05;;;12.77;;
45620;SDS011;31345;51.522;10.702;2023-04-15T02:50:43;18.23;;;13.20;;
45620;SDS011;31345;51.522;10.702;2023-04-15T02:53:18;17.85;;;12.82;;
45620;SDS011;31345;51.522;10.702;2023-04-15T02:55:52;19.80;;;14.05;;
45620;SDS011;31345;51.522;10.702;2023-04-15T02:58:19;17.67;;;13.05;;
45620;SDS011;31345;51.522;10.702;2023-04-15T03:00:53;18.97;;;12.83;;
45620;SDS011;31345;51.522;10.702;2023-04-15T03:03:21;19.65;;;14.00;;
45620;SDS011;31345;51.522;10.702;2023-04-15T03:05:54;18.20;;;13.13;;
45620;SDS011;31345;51.522;10.702;2023-04-15T03:08:27;19.20;;;13.40;;
45620;SDS011;31345;51.522;10.702;2023-04-15T03:11:01;16.83;;;11.93;;
45620;SDS011;31345;51.522;10.702;2023-04-15T03:13:34;18.85;;;13.02;;
45620;SDS011;31345;51.522;10.702;2023-04-15T03:16:15;18.40;;;13.57;;
45620;SDS011;31345;51.522;10.702;2023-04-15T03:18:48;19.70;;;14.13;;
45620;SDS011;31345;51.522;10.702;2023-04-15T03:21:22;19.80;;;14.23;;
45620;SDS011;31345;51.522;10.702;2023-04-15T03:23:50;18.13;;;12.77;;
45620;SDS011;31345;51.522;10.702;2023-04-15T03:26:25;19.02;;;13.68;;
45620;SDS011;31345;51.522;10.702;2023-04-15T03:29:02;18.13;;;13.50;;
45620;SDS011;31345;51.522;10.702;2023-04-15T03:31:31;19.52;;;13.65;;
45620;SDS011;31345;51.522;10.702;2023-04-15T03:33:58;20.52;;;14.50;;
45620;SDS011;31345;51.522;10.702;2023-04-15T03:36:31;18.65;;;13.45;;
45620;SDS011;31345;51.522;10.702;2023-04-15T03:39:04;16.87;;;13.30;;
45620;SDS011;31345;51.522;10.702;2023-04-15T03:41:31;19.87;;;13.93;;
45620;SDS011;31345;51.522;10.702;2023-04-15T03:43:59;20.13;;;14.27;;
45620;SDS011;31345;51.522;10.702;2023-04-15T03:46:33;18.77;;;13.02;;
45620;SDS011;31345;51.522;10.702;2023-04-15T03:49:00;18.03;;;12.70;;
45620;SDS011;31345;51.522;10.702;2023-04-15T03:51:33;19.10;;;14.47;;
45620;SDS011;31345;51.522;10.702;2023-04-15T03:54:07;18.70;;;13.13;;
45620;SDS011;31345;51.522;10.702;2023-04-15T03:56:39;19.20;;;13.27;;
45620;SDS011;31345;51.522;10.702;2023-04-15T03:59:07;18.47;;;13.30;;
45620;SDS011;31345;51.522;10.702;2023-04-15T04:01:41;20.40;;;13.70;;
45620;SDS011;31345;51.522;10.702;2023-04-15T04:04:13;16.27;;;12.67;;
45620;SDS011;31345;51.522;10.702;2023-04-15T04:06:41;17.93;;;12.83;;
45620;SDS011;31345;51.522;10.702;2023-04-15T04:09:08;17.50;;;12.60;;
45620;SDS011;31345;51.522;10.702;2023-04-15T04:11:41;18.67;;;13.43;;
45620;SDS011;31345;51.522;10.702;2023-04-15T04:14:10;19.57;;;13.80;;
45620;SDS011;31345;51.522;10.702;2023-04-15T04:16:44;16.30;;;12.00;;
45620;SDS011;31345;51.522;10.702;2023-04-15T04:19:17;16.20;;;11.40;;
45620;SDS011;31345;51.522;10.702;2023-04-15T04:21:45;19.03;;;13.13;;
45620;SDS011;31345;51.522;10.702;2023-04-15T04:24:17;16.23;;;11.63;;
45620;SDS011;31345;51.522;10.702;2023-04-15T04:26:51;18.30;;;11.73;;
45620;SDS011;31345;51.522;10.702;2023-04-15T04:29:18;13.70;;;11.10;;
45620;SDS011;31345;51.522;10.702;2023-04-15T04:31:52;14.37;;;10.43;;
45620;SDS011;31345;51.522;10.702;2023-04-15T04:34:20;15.50;;;10.93;;
45620;SDS011;31345;51.522;10.702;2023-04-15T04:36:53;16.90;;;11.10;;
45620;SDS011;31345;51.522;10.702;2023-04-15T04:39:25;14.37;;;10.60;;
45620;SDS011;31345;51.522;10.702;2023-04-15T04:41:53;16.93;;;11.33;;
45620;SDS011;31345;51.522;10.702;2023-04-15T04:44:20;16.03;;;11.43;;
45620;SDS011;31345;51.522;10.702;2023-04-15T04:46:54;14.37;;;9.77;;
45620;SDS011;31345;51.522;10.702;2023-04-15T04:49:22;16.47;;;10.87;;
45620;SDS011;31345;51.522;10.702;2023-04-15T04:51:49;13.77;;;10.97;;
45620;SDS011;31345;51.522;10.702;2023-04-15T04:54:19;15.23;;;11.70;;
45620;SDS011;31345;51.522;10.702;2023-04-15T05:57:44;13.83;;;8.97;;
45620;SDS011;31345;51.522;10.702;2023-04-15T06:00:17;15.60;;;9.50;;
45620;SDS011;31345;51.522;10.702;2023-04-15T06:02:50;13.93;;;8.80;;
45620;SDS011;31345;51.522;10.702;2023-04-15T06:05:18;15.23;;;9.27;;
45620;SDS011;31345;51.522;10.702;2023-04-15T06:07:50;14.40;;;9.77;;
45620;SDS011;31345;51.522;10.702;2023-04-15T06:10:18;12.37;;;8.13;;
45620;SDS011;31345;51.522;10.702;2023-04-15T06:12:52;15.30;;;9.90;;
45620;SDS011;31345;51.522;10.702;2023-04-15T06:15:25;16.17;;;9.80;;
45620;SDS011;31345;51.522;10.702;2023-04-15T06:17:58;14.53;;;9.60;;
45620;SDS011;31345;51.522;10.702;2023-04-15T06:20:25;14.07;;;8.90;;
45620;SDS011;31345;51.522;10.702;2023-04-15T06:22:53;14.07;;;9.10;;
45620;SDS011;31345;51.522;10.702;2023-04-15T06:25:22;12.50;;;8.23;;
45620;SDS011;31345;51.522;10.702;2023-04-15T06:27:49;12.93;;;8.83;;
45620;SDS011;31345;51.522;10.702;2023-04-15T06:30:23;14.30;;;9.47;;
45620;SDS011;31345;51.522;10.702;2023-04-15T06:32:56;12.77;;;8.75;;
45620;SDS011;31345;51.522;10.702;2023-04-15T06:35:28;13.13;;;8.60;;
45620;SDS011;31345;51.522;10.702;2023-04-15T06:37:56;14.35;;;8.23;;
45620;SDS011;31345;51.522;10.702;2023-04-15T06:40:29;10.87;;;7.77;;
45620;SDS011;31345;51.522;10.702;2023-04-15T06:43:01;12.57;;;7.87;;
45620;SDS011;31345;51.522;10.702;2023-04-15T06:45:31;11.88;;;7.45;;
45620;SDS011;31345;51.522;10.702;2023-04-15T06:48:04;12.10;;;7.87;;
45620;SDS011;31345;51.522;10.702;2023-04-15T06:50:37;11.40;;;7.37;;
45620;SDS011;31345;51.522;10.702;2023-04-15T06:53:09;10.10;;;6.82;;
45620;SDS011;31345;51.522;10.702;2023-04-15T06:55:42;10.73;;;7.23;;
45620;SDS011;31345;51.522;10.702;2023-04-15T06:58:16;11.98;;;7.90;;
45620;SDS011;31345;51.522;10.702;2023-04-15T07:00:45;12.70;;;7.80;;
45620;SDS011;31345;51.522;10.702;2023-04-15T07:03:13;11.30;;;7.63;;
45620;SDS011;31345;51.522;10.702;2023-04-15T07:05:41;11.90;;;7.73;;
45620;SDS011;31345;51.522;10.702;2023-04-15T07:08:14;10.82;;;7.35;;
45620;SDS011;31345;51.522;10.702;2023-04-15T07:10:42;11.80;;;7.53;;
45620;SDS011;31345;51.522;10.702;2023-04-15T07:13:10;10.20;;;6.90;;
45620;SDS011;31345;51.522;10.702;2023-04-15T07:15:42;12.47;;;7.83;;
45620;SDS011;31345;51.522;10.702;2023-04-15T07:18:17;11.02;;;7.25;;
45620;SDS011;31345;51.522;10.702;2023-04-15T07:20:45;10.27;;;7.03;;
45620;SDS011;31345;51.522;10.702;2023-04-15T07:23:18;10.13;;;7.13;;
45620;SDS011;31345;51.522;10.702;2023-04-15T07:25:51;8.88;;;6.05;;
45620;SDS011;31345;51.522;10.702;2023-04-15T07:28:19;9.23;;;6.60;;
45620;SDS011;31345;51.522;10.702;2023-04-15T07:30:47;10.57;;;6.93;;
45620;SDS011;31345;51.522;10.702;2023-04-15T07:33:21;9.18;;;6.30;;
45620;SDS011;31345;51.522;10.702;2023-04-15T07:35:49;11.57;;;6.80;;
45620;SDS011;31345;51.522;10.702;2023-04-15T07:38:21;12.38;;;7.07;;
45620;SDS011;31345;51.522;10.702;2023-04-15T07:40:54;9.23;;;6.72;;
45620;SDS011;31345;51.522;10.702;2023-04-15T07:43:23;9.15;;;6.20;;
45620;SDS011;31345;51.522;10.702;2023-04-15T07:45:55;9.95;;;7.05;;
45620;SDS011;31345;51.522;10.702;2023-04-15T07:48:29;9.87;;;6.43;;
45620;SDS011;31345;51.522;10.702;2023-04-15T07:51:02;11.10;;;7.47;;
45620;SDS011;31345;51.522;10.702;2023-04-15T07:53:35;11.82;;;7.85;;
45620;SDS011;31345;51.522;10.702;2023-04-15T07:56:08;12.37;;;8.13;;
45620;SDS011;31345;51.522;10.702;2023-04-15T07:58:41;12.27;;;7.23;;
45620;SDS011;31345;51.522;10.702;2023-04-15T08:01:14;13.45;;;7.82;;
45620;SDS011;31345;51.522;10.702;2023-04-15T08:03:48;11.07;;;7.20;;
45620;SDS011;31345;51.522;10.702;2023-04-15T08:06:16;11.10;;;7.53;;
45620;SDS011;31345;51.522;10.702;2023-04-15T08:08:48;11.30;;;7.50;;
45620;SDS011;31345;51.522;10.702;2023-04-15T08:11:21;12.30;;;7.88;;
45620;SDS011;31345;51.522;10.702;2023-04-15T08:13:49;11.70;;;7.40;;
45620;SDS011;31345;51.522;10.702;2023-04-15T08:16:23;11.37;;;7.33;;
45620;SDS011;31345;51.522;10.702;2023-04-15T08:18:54;11.10;;;7.20;;
45620;SDS011;31345;51.522;10.702;2023-04-15T08:21:27;11.88;;;7.85;;
45620;SDS011;31345;51.522;10.702;2023-04-15T08:23:55;11.30;;;7.50;;
45620;SDS011;31345;51.522;10.702;2023-04-15T08:26:23;12.23;;;7.70;;
45620;SDS011;31345;51.522;10.702;2023-04-15T08:28:51;9.87;;;7.00;;
45620;SDS011;31345;51.522;10.702;2023-04-15T08:31:25;13.40;;;8.23;;
45620;SDS011;31345;51.522;10.702;2023-04-15T08:33:56;9.38;;;7.22;;
45620;SDS011;31345;51.522;10.702;2023-04-15T08:36:29;11.38;;;7.43;;
45620;SDS011;31345;51.522;10.702;2023-04-15T08:38:57;10.93;;;7.88;;
45620;SDS011;31345;51.522;10.702;2023-04-15T08:41:26;10.25;;;7.72;;
45620;SDS011;31345;51.522;10.702;2023-04-15T08:44:02;10.57;;;7.25;;
45620;SDS011;31345;51.522;10.702;2023-04-15T08:46:36;8.75;;;5.97;;
45620;SDS011;31345;51.522;10.702;2023-04-15T08:49:10;10.65;;;6.68;;
45620;SDS011;31345;51.522;10.702;2023-04-15T08:51:44;10.80;;;6.70;;
45620;SDS011;31345;51.522;10.702;2023-04-15T08:54:17;9.75;;;6.88;;
45620;SDS011;31345;51.522;10.702;2023-04-15T08:56:50;7.85;;;5.60;;
45620;SDS011;31345;51.522;10.702;2023-04-15T08:59:24;9.45;;;6.20;;
45620;SDS011;31345;51.522;10.702;2023-04-15T09:01:52;7.63;;;5.43;;
45620;SDS011;31345;51.522;10.702;2023-04-15T09:04:21;11.27;;;6.50;;
45620;SDS011;31345;51.522;10.702;2023-04-15T09:06:54;8.73;;;5.85;;
45620;SDS011;31345;51.522;10.702;2023-04-15T09:09:27;8.02;;;5.82;;
45620;SDS011;31345;51.522;10.702;2023-04-15T09:12:01;7.43;;;6.05;;
45620;SDS011;31345;51.522;10.702;2023-04-15T09:14:33;7.97;;;5.93;;
45620;SDS011;31345;51.522;10.702;2023-04-15T09:17:07;8.05;;;5.47;;
45620;SDS011;31345;51.522;10.702;2023-04-15T09:19:43;7.53;;;5.65;;
45620;SDS011;31345;51.522;10.702;2023-04-15T09:22:16;8.68;;;5.90;;
45620;SDS011;31345;51.522;10.702;2023-04-15T09:24:48;8.15;;;5.60;;
45620;SDS011;31345;51.522;10.702;2023-04-15T09:27:16;9.10;;;6.10;;
45620;SDS011;31345;51.522;10.702;2023-04-15T09:29:49;8.00;;;5.82;;
45620;SDS011;31345;51.522;10.702;2023-04-15T09:32:17;7.40;;;5.65;;
45620;SDS011;31345;51.522;10.702;2023-04-15T09:34:47;9.13;;;6.35;;
45620;SDS011;31345;51.522;10.702;2023-04-15T09:37:23;7.30;;;5.70;;
45620;SDS011;31345;51.522;10.702;2023-04-15T09:40:07;7.63;;;5.43;;
45620;SDS011;31345;51.522;10.702;2023-04-15T09:42:54;7.45;;;5.75;;
45620;SDS011;31345;51.522;10.702;2023-04-15T09:45:24;7.28;;;5.07;;
45620;SDS011;31345;51.522;10.702;2023-04-15T09:47:52;7.53;;;5.63;;
45620;SDS011;31345;51.522;10.702;2023-04-15T09:50:47;7.53;;;5.20;;
45620;SDS011;31345;51.522;10.702;2023-04-15T09:53:23;8.00;;;5.25;;
45620;SDS011;31345;51.522;10.702;2023-04-15T09:56:00;6.63;;;4.93;;
45620;SDS011;31345;51.522;10.702;2023-04-15T09:58:47;8.38;;;5.22;;
45620;SDS011;31345;51.522;10.702;2023-04-15T10:01:31;8.45;;;5.75;;
45620;SDS011;31345;51.522;10.702;2023-04-15T10:04:04;6.35;;;4.75;;
45620;SDS011;31345;51.522;10.702;2023-04-15T10:09:35;7.63;;;4.97;;
45620;SDS011;31345;51.522;10.702;2023-04-15T10:12:10;7.93;;;5.45;;
45620;SDS011;31345;51.522;10.702;2023-04-15T10:14:38;6.75;;;5.13;;
45620;SDS011;31345;51.522;10.702;2023-04-15T10:17:15;8.15;;;5.53;;
45620;SDS011;31345;51.522;10.702;2023-04-15T10:19:44;6.05;;;4.50;;
45620;SDS011;31345;51.522;10.702;2023-04-15T10:22:14;6.85;;;4.53;;
45620;SDS011;31345;51.522;10.702;2023-04-15T10:24:44;5.97;;;4.70;;
45620;SDS011;31345;51.522;10.702;2023-04-15T10:27:20;7.97;;;5.32;;
45620;SDS011;31345;51.522;10.702;2023-04-15T10:29:49;6.93;;;4.95;;
45620;SDS011;31345;51.522;10.702;2023-04-15T10:32:18;5.95;;;4.47;;
45620;SDS011;31345;51.522;10.702;2023-04-15T10:34:52;7.35;;;5.03;;
45620;SDS011;31345;51.522;10.702;2023-04-15T10:37:39;6.78;;;4.90;;
45620;SDS011;31345;51.522;10.702;2023-04-15T10:40:23;7.25;;;5.03;;
45620;SDS011;31345;51.522;10.702;2023-04-15T10:42:52;9.75;;;5.00;;
45620;SDS011;31345;51.522;10.702;2023-04-15T10:45:20;6.10;;;4.50;;
45620;SDS011;31345;51.522;10.702;2023-04-15T10:47:51;6.85;;;4.95;;
45620;SDS011;31345;51.522;10.702;2023-04-15T10:50:21;6.70;;;4.50;;
45620;SDS011;31345;51.522;10.702;2023-04-15T10:53:00;5.68;;;4.28;;
45620;SDS011;31345;51.522;10.702;2023-04-15T10:55:34;6.82;;;5.00;;
45620;SDS011;31345;51.522;10.702;2023-04-15T10:58:07;6.53;;;4.53;;
45620;SDS011;31345;51.522;10.702;2023-04-15T11:00:41;6.53;;;4.13;;
45620;SDS011;31345;51.522;10.702;2023-04-15T11:06:07;6.18;;;4.28;;
45620;SDS011;31345;51.522;10.702;2023-04-15T11:08:54;7.28;;;5.28;;
45620;SDS011;31345;51.522;10.702;2023-04-15T11:14:38;8.23;;;5.43;;
45620;SDS011;31345;51.522;10.702;2023-04-15T11:17:08;6.72;;;5.20;;
45620;SDS011;31345;51.522;10.702;2023-04-15T11:19:36;6.03;;;4.80;;
45620;SDS011;31345;51.522;10.702;2023-04-15T11:22:09;6.25;;;4.35;;
45620;SDS011;31345;51.522;10.702;2023-04-15T11:24:49;7.10;;;5.30;;
45620;SDS011;31345;51.522;10.702;2023-04-15T11:27:22;7.25;;;4.75;;
45620;SDS011;31345;51.522;10.702;2023-04-15T11:29:55;6.50;;;4.70;;
45620;SDS011;31345;51.522;10.702;2023-04-15T11:32:27;7.88;;;5.07;;
45620;SDS011;31345;51.522;10.702;2023-04-15T11:34:55;6.40;;;4.65;;
45620;SDS011;31345;51.522;10.702;2023-04-15T11:37:28;6.78;;;5.10;;
45620;SDS011;31345;51.522;10.702;2023-04-15T11:39:58;6.78;;;4.95;;
45620;SDS011;31345;51.522;10.702;2023-04-15T11:42:30;7.03;;;5.10;;
45620;SDS011;31345;51.522;10.702;2023-04-15T11:45:06;7.18;;;4.90;;
45620;SDS011;31345;51.522;10.702;2023-04-15T11:47:39;6.43;;;4.38;;
45620;SDS011;31345;51.522;10.702;2023-04-15T11:50:15;6.72;;;5.07;;
45620;SDS011;31345;51.522;10.702;2023-04-15T11:52:51;8.57;;;5.47;;
45620;SDS011;31345;51.522;10.702;2023-04-15T11:55:26;7.35;;;5.53;;
45620;SDS011;31345;51.522;10.702;2023-04-15T11:58:10;12.27;;;8.70;;
45620;SDS011;31345;51.522;10.702;2023-04-15T12:00:47;17.75;;;11.18;;
45620;SDS011;31345;51.522;10.702;2023-04-15T12:03:18;21.27;;;13.18;;
45620;SDS011;31345;51.522;10.702;2023-04-15T12:11:44;9.57;;;6.80;;
45620;SDS011;31345;51.522;10.702;2023-04-15T12:14:20;8.70;;;5.90;;
45620;SDS011;31345;51.522;10.702;2023-04-15T12:16:52;7.85;;;5.63;;
45620;SDS011;31345;51.522;10.702;2023-04-15T12:19:26;8.50;;;5.82;;
45620;SDS011;31345;51.522;10.702;2023-04-15T12:21:56;9.43;;;5.75;;
45620;SDS011;31345;51.522;10.702;2023-04-15T12:24:30;7.13;;;5.53;;
45620;SDS011;31345;51.522;10.702;2023-04-15T12:27:04;7.80;;;5.75;;
45620;SDS011;31345;51.522;10.702;2023-04-15T12:29:32;8.23;;;5.78;;
45620;SDS011;31345;51.522;10.702;2023-04-15T12:32:06;8.98;;;6.53;;
45620;SDS011;31345;51.522;10.702;2023-04-15T12:34:36;10.20;;;6.57;;
45620;SDS011;31345;51.522;10.702;2023-04-15T12:37:10;9.57;;;7.15;;
45620;SDS011;31345;51.522;10.702;2023-04-15T12:39:45;18.45;;;11.68;;
45620;SDS011;31345;51.522;10.702;2023-04-15T12:42:20;15.18;;;10.13;;
45620;SDS011;31345;51.522;10.702;2023-04-15T12:44:53;17.58;;;11.98;;
45620;SDS011;31345;51.522;10.702;2023-04-15T12:47:21;20.52;;;13.60;;
45620;SDS011;31345;51.522;10.702;2023-04-15T12:49:53;20.50;;;13.65;;
45620;SDS011;31345;51.522;10.702;2023-04-15T12:52:25;20.15;;;12.82;;
45620;SDS011;31345;51.522;10.702;2023-04-15T12:54:58;18.80;;;12.35;;
45620;SDS011;31345;51.522;10.702;2023-04-15T12:57:28;13.65;;;9.38;;
45620;SDS011;31345;51.522;10.702;2023-04-15T13:00:00;17.10;;;10.85;;
45620;SDS011;31345;51.522;10.702;2023-04-15T13:02:36;22.88;;;15.02;;
45620;SDS011;31345;51.522;10.702;2023-04-15T13:05:09;24.15;;;14.85;;
45620;SDS011;31345;51.522;10.702;2023-04-15T13:07:37;23.60;;;14.98;;
45620;SDS011;31345;51.522;10.702;2023-04-15T13:10:05;25.90;;;15.55;;
45620;SDS011;31345;51.522;10.702;2023-04-15T13:12:34;21.23;;;13.55;;
45620;SDS011;31345;51.522;10.702;2023-04-15T13:15:07;22.17;;;14.20;;
45620;SDS011;31345;51.522;10.702;2023-04-15T13:17:37;23.65;;;15.40;;
45620;SDS011;31345;51.522;10.702;2023-04-15T13:20:10;22.85;;;15.00;;
45620;SDS011;31345;51.522;10.702;2023-04-15T13:22:37;22.38;;;15.70;;
45620;SDS011;31345;51.522;10.702;2023-04-15T13:25:10;24.13;;;15.82;;
45620;SDS011;31345;51.522;10.702;2023-04-15T13:27:44;24.13;;;15.70;;
45620;SDS011;31345;51.522;10.702;2023-04-15T13:30:12;22.30;;;15.05;;
45620;SDS011;31345;51.522;10.702;2023-04-15T13:32:44;23.83;;;15.43;;
45620;SDS011;31345;51.522;10.702;2023-04-15T13:35:17;20.98;;;14.73;;
45620;SDS011;31345;51.522;10.702;2023-04-15T13:37:45;19.20;;;13.55;;
45620;SDS011;31345;51.522;10.702;2023-04-15T13:40:13;19.27;;;13.52;;
45620;SDS011;31345;51.522;10.702;2023-04-15T13:42:41;21.55;;;12.68;;
45620;SDS011;31345;51.522;10.702;2023-04-15T13:45:10;18.55;;;13.10;;
45620;SDS011;31345;51.522;10.702;2023-04-15T13:47:38;21.95;;;14.05;;
45620;SDS011;31345;51.522;10.702;2023-04-15T13:50:07;21.17;;;13.32;;
45620;SDS011;31345;51.522;10.702;2023-04-15T13:52:40;20.35;;;13.57;;
45620;SDS011;31345;51.522;10.702;2023-04-15T13:55:08;19.65;;;13.30;;
45620;SDS011;31345;51.522;10.702;2023-04-15T13:57:36;22.00;;;14.32;;
45620;SDS011;31345;51.522;10.702;2023-04-15T14:00:04;19.55;;;13.57;;
45620;SDS011;31345;51.522;10.702;2023-04-15T14:02:39;22.13;;;13.80;;
45620;SDS011;31345;51.522;10.702;2023-04-15T14:05:12;21.52;;;14.68;;
45620;SDS011;31345;51.522;10.702;2023-04-15T14:07:45;20.65;;;14.02;;
45620;SDS011;31345;51.522;10.702;2023-04-15T14:10:12;18.23;;;11.70;;
45620;SDS011;31345;51.522;10.702;2023-04-15T14:12:45;18.90;;;12.38;;
45620;SDS011;31345;51.522;10.702;2023-04-15T14:15:17;19.13;;;12.88;;
45620;SDS011;31345;51.522;10.702;2023-04-15T14:17:51;17.25;;;12.13;;
45620;SDS011;31345;51.522;10.702;2023-04-15T14:20:25;20.65;;;13.55;;
45620;SDS011;31345;51.522;10.702;2023-04-15T14:22:57;19.30;;;12.75;;
45620;SDS011;31345;51.522;10.702;2023-04-15T14:25:30;21.17;;;13.73;;
45620;SDS011;31345;51.522;10.702;2023-04-15T14:28:03;19.33;;;13.23;;
45620;SDS011;31345;51.522;10.702;2023-04-15T14:30:36;18.38;;;13.20;;
45620;SDS011;31345;51.522;10.702;2023-04-15T14:33:10;21.17;;;13.23;;
45620;SDS011;31345;51.522;10.702;2023-04-15T14:35:43;21.23;;;13.25;;
45620;SDS011;31345;51.522;10.702;2023-04-15T14:38:10;20.38;;;13.65;;
45620;SDS011;31345;51.522;10.702;2023-04-15T14:40:43;19.77;;;13.40;;
45620;SDS011;31345;51.522;10.702;2023-04-15T14:43:10;17.52;;;12.57;;
45620;SDS011;31345;51.522;10.702;2023-04-15T14:45:43;18.50;;;12.60;;
45620;SDS011;31345;51.522;10.702;2023-04-15T14:48:12;19.88;;;13.10;;
45620;SDS011;31345;51.522;10.702;2023-04-15T14:50:45;17.15;;;12.05;;
45620;SDS011;31345;51.522;10.702;2023-04-15T14:53:12;19.73;;;13.27;;
45620;SDS011;31345;51.522;10.702;2023-04-15T14:55:45;22.02;;;15.15;;
45620;SDS011;31345;51.522;10.702;2023-04-15T14:58:17;22.20;;;15.13;;
45620;SDS011;31345;51.522;10.702;2023-04-15T15:00:50;23.38;;;15.70;;
45620;SDS011;31345;51.522;10.702;2023-04-15T15:03:20;20.67;;;14.23;;
45620;SDS011;31345;51.522;10.702;2023-04-15T15:05:47;19.75;;;13.77;;
45620;SDS011;31345;51.522;10.702;2023-04-15T15:08:20;17.55;;;12.30;;
45620;SDS011;31345;51.522;10.702;2023-04-15T15:10:48;22.85;;;13.85;;
45620;SDS011;31345;51.522;10.702;2023-04-15T15:13:21;16.80;;;11.52;;
45620;SDS011;31345;51.522;10.702;2023-04-15T15:15:53;17.20;;;12.35;;
45620;SDS011;31345;51.522;10.702;2023-04-15T15:18:27;18.30;;;13.60;;
45620;SDS011;31345;51.522;10.702;2023-04-15T15:21:01;20.13;;;13.05;;
45620;SDS011;31345;51.522;10.702;2023-04-15T15:23:28;16.38;;;12.27;;
45620;SDS011;31345;51.522;10.702;2023-04-15T15:25:57;17.50;;;11.18;;
45620;SDS011;31345;51.522;10.702;2023-04-15T15:28:24;18.42;;;12.50;;
45620;SDS011;31345;51.522;10.702;2023-04-15T15:30:52;16.85;;;12.35;;
45620;SDS011;31345;51.522;10.702;2023-04-15T15:33:25;17.63;;;11.43;;
45620;SDS011;31345;51.522;10.702;2023-04-15T15:35:54;16.92;;;11.25;;
45620;SDS011;31345;51.522;10.702;2023-04-15T15:38:26;18.92;;;13.60;;
45620;SDS011;31345;51.522;10.702;2023-04-15T15:40:54;19.25;;;13.15;;
45620;SDS011;31345;51.522;10.702;2023-04-15T15:43:22;19.13;;;12.60;;
45620;SDS011;31345;51.522;10.702;2023-04-15T15:45:49;17.08;;;11.95;;
45620;SDS011;31345;51.522;10.702;2023-04-15T15:48:25;18.23;;;12.05;;
45620;SDS011;31345;51.522;10.702;2023-04-15T15:50:59;19.15;;;12.13;;
45620;SDS011;31345;51.522;10.702;2023-04-15T15:53:34;17.90;;;12.88;;
45620;SDS011;31345;51.522;10.702;2023-04-15T15:56:07;17.02;;;12.13;;
45620;SDS011;31345;51.522;10.702;2023-04-15T15:58:39;19.33;;;12.95;;
45620;SDS011;31345;51.522;10.702;2023-04-15T16:01:08;20.25;;;12.48;;
45620;SDS011;31345;51.522;10.702;2023-04-15T16:03:41;18.35;;;12.40;;